Time;durP1;ratioP1;P1;durP2;ratioP2;P2;SDS_P1;SDS_P2;PMS_P1;PMS_P2;Temp;Humidity;BMP_temperature;BMP_pressure;BME280_temperature;BME280_humidity;BME280_pressure;Samples;Min_cycle;Max_cycle;Signal;HPM_P1;HPM_P2
2022/06/12 00:00:01;;;;;;;;;3.00;0.75;;;;;20.50;44.47;102244.16;2402491;28;48154;-76
2022/06/12 00:01:12;;;;;;;;;2.00;2.00;;;;;20.51;44.15;102247.69;2398596;28;45516;-77
2022/06/12 00:02:23;;;;;;;;;1.00;1.00;;;;;20.48;44.17;102256.72;2393488;28;46226;-76
2022/06/12 00:03:34;;;;;;;;;1.00;1.00;;;;;20.50;44.22;102256.63;2393338;28;45349;-77
2022/06/12 00:04:44;;;;;;;;;2.50;1.00;;;;;20.49;44.21;102246.91;2392650;28;46978;-77
2022/06/12 00:05:57;;;;;;;;;2.75;1.00;;;;;20.48;44.22;102246.06;2393255;28;45433;-77
2022/06/12 00:07:07;;;;;;;;;4.25;1.00;;;;;20.48;44.02;102261.19;2393370;28;47446;-77
2022/06/12 00:08:20;;;;;;;;;1.00;1.00;;;;;20.44;43.94;102252.50;2393877;28;45352;-77
2022/06/12 00:09:30;;;;;;;;;2.25;1.00;;;;;20.39;44.32;102247.41;2393882;28;45273;-77
2022/06/12 00:10:43;;;;;;;;;1.00;1.00;;;;;20.37;44.40;102251.09;2393993;28;45165;-77
2022/06/12 00:11:54;;;;;;;;;3.00;1.75;;;;;20.37;44.37;102253.75;2402836;28;48379;-76
2022/06/12 00:13:07;;;;;;;;;2.25;1.00;;;;;20.34;44.23;102250.31;2399337;28;45481;-76
2022/06/12 00:14:17;;;;;;;;;1.50;1.00;;;;;20.32;44.10;102246.81;2394172;28;45241;-76
2022/06/12 00:15:30;;;;;;;;;0.50;0.50;;;;;20.32;44.38;102248.66;2393201;28;45288;-76
2022/06/12 00:16:41;;;;;;;;;0.25;0.25;;;;;20.29;44.51;102251.47;2390175;28;46594;-76
2022/06/12 00:17:52;;;;;;;;;1.25;1.25;;;;;20.28;44.17;102244.38;2394003;28;45471;-76
2022/06/12 00:19:03;;;;;;;;;4.50;1.00;;;;;20.27;44.59;102256.03;2392780;28;45404;-77
2022/06/12 00:20:15;;;;;;;;;3.25;1.50;;;;;20.24;44.71;102241.91;2393699;28;45162;-76
2022/06/12 00:21:27;;;;;;;;;3.00;1.00;;;;;20.23;44.43;102245.50;2399196;28;47095;-76
2022/06/12 00:22:38;;;;;;;;;1.75;0.75;;;;;20.20;44.91;102242.13;2396978;28;45508;-77
2022/06/12 00:23:53;;;;;;;;;2.75;1.50;;;;;20.21;44.68;102241.16;2399087;28;47217;-77
2022/06/12 00:25:06;;;;;;;;;1.00;1.00;;;;;20.20;44.56;102248.31;2399449;28;45316;-77
2022/06/12 00:26:32;;;;;;;;;2.00;1.00;;;;;20.20;44.71;102242.97;2389787;28;46521;-76
2022/06/12 00:27:43;;;;;;;;;2.75;2.25;;;;;20.20;44.78;102244.81;2389532;28;44758;-76
2022/06/12 00:29:05;;;;;;;;;1.00;0.50;;;;;20.20;44.88;102247.47;2391149;28;47012;-76
2022/06/12 00:30:20;;;;;;;;;1.00;1.00;;;;;20.19;44.71;102251.94;2389381;28;45806;-77
2022/06/12 00:31:33;;;;;;;;;1.50;0.50;;;;;20.17;44.85;102253.81;2396693;28;45747;-76
2022/06/12 00:32:49;;;;;;;;;1.75;1.75;;;;;20.18;44.74;102246.66;2392376;28;45187;-76
2022/06/12 00:34:01;;;;;;;;;3.00;1.00;;;;;20.19;44.97;102253.75;2392749;28;46043;-76
2022/06/12 00:35:11;;;;;;;;;1.00;1.00;;;;;20.18;44.55;102242.19;2393556;28;44689;-76
2022/06/12 00:36:22;;;;;;;;;1.00;1.00;;;;;20.20;44.97;102252.81;2398086;28;45498;-76
2022/06/12 00:37:33;;;;;;;;;1.00;1.00;;;;;20.21;45.04;102250.06;2393163;28;45217;-76
2022/06/12 00:38:43;;;;;;;;;5.00;1.25;;;;;20.20;44.94;102247.47;2393266;28;45738;-76
2022/06/12 00:39:56;;;;;;;;;1.00;1.00;;;;;20.18;44.68;102249.31;2393428;28;45217;-76
2022/06/12 00:41:07;;;;;;;;;3.50;2.00;;;;;20.20;45.10;102258.16;2392122;28;45447;-76
2022/06/12 00:42:26;;;;;;;;;0.75;0.00;;;;;20.18;45.05;102260.88;2394178;28;45282;-76
2022/06/12 00:43:38;;;;;;;;;2.25;0.75;;;;;20.17;45.12;102263.63;2392752;28;45645;-76
2022/06/12 00:44:48;;;;;;;;;1.25;1.00;;;;;20.14;45.11;102259.31;2393177;28;45270;-76
2022/06/12 00:46:01;;;;;;;;;3.25;2.00;;;;;20.11;44.86;102260.31;2385408;28;45286;-77
2022/06/12 00:47:13;;;;;;;;;1.00;1.00;;;;;20.08;45.35;102259.56;2392886;28;45293;-76
2022/06/12 00:48:29;;;;;;;;;1.25;1.00;;;;;20.08;45.25;102264.91;2393639;28;45231;-76
2022/06/12 00:50:03;;;;;;;;;2.00;1.00;;;;;20.06;45.28;102259.66;2392484;28;45451;-76
2022/06/12 00:51:20;;;;;;;;;2.00;1.50;;;;;20.04;45.31;102258.00;2392084;28;46160;-76
2022/06/12 00:52:43;;;;;;;;;1.00;1.00;;;;;20.04;45.63;102258.00;2393554;28;45494;-76
2022/06/12 00:53:58;;;;;;;;;3.00;1.00;;;;;20.04;45.49;102255.31;2393363;28;45603;-76
2022/06/12 00:55:17;;;;;;;;;2.00;0.50;;;;;20.04;45.67;102244.66;2393218;28;45326;-76
2022/06/12 00:56:32;;;;;;;;;2.00;1.00;;;;;20.04;45.37;102248.19;2399498;28;48269;-76
2022/06/12 00:57:45;;;;;;;;;3.00;1.00;;;;;20.04;45.47;102248.19;2392147;28;45516;-76
2022/06/12 00:59:02;;;;;;;;;1.25;1.00;;;;;20.02;45.30;102247.41;2392642;28;46345;-76
2022/06/12 01:00:15;;;;;;;;;1.00;0.75;;;;;19.99;45.83;102251.09;2392730;28;45274;-76
2022/06/12 01:01:34;;;;;;;;;3.00;1.00;;;;;20.00;45.63;102255.47;2393642;28;46586;-75
2022/06/12 01:02:44;;;;;;;;;1.25;1.25;;;;;19.96;45.49;102251.22;2393261;28;45230;-75
2022/06/12 01:06:56;;;;;;;;;1.00;1.00;;;;;19.86;45.75;102249.94;2386640;28;45275;-75
2022/06/12 01:08:08;;;;;;;;;3.25;1.50;;;;;19.84;45.73;102243.81;2388600;28;45495;-75
2022/06/12 01:09:28;;;;;;;;;1.00;1.00;;;;;19.85;46.06;102245.56;2392316;28;45459;-75
2022/06/12 05:23:59;;;;;;;;;2.00;2.00;;;;;18.57;50.02;102254.84;2400212;28;45934;-75
2022/06/12 05:25:09;;;;;;;;;2.50;1.50;;;;;18.59;49.49;102258.31;2401260;28;46768;-75
2022/06/12 05:26:21;;;;;;;;;2.00;2.00;;;;;18.59;49.35;102266.28;2399249;28;45269;-75
2022/06/12 05:27:32;;;;;;;;;3.75;1.75;;;;;18.58;49.49;102254.75;2401784;28;45703;-75
2022/06/12 05:28:44;;;;;;;;;2.75;1.75;;;;;18.59;49.18;102264.50;2405197;28;44909;-75
2022/06/12 05:29:55;;;;;;;;;3.25;2.00;;;;;18.59;49.02;102261.84;2403428;28;47233;-75
2022/06/12 05:31:05;;;;;;;;;3.50;2.00;;;;;18.58;49.11;102253.88;2399886;28;44681;-75
2022/06/12 05:32:18;;;;;;;;;4.75;3.00;;;;;18.62;49.00;102258.19;2403154;28;45331;-75
2022/06/12 05:33:28;;;;;;;;;2.00;2.00;;;;;18.61;49.52;102249.31;2411797;28;45287;-75
2022/06/12 05:34:38;;;;;;;;;2.75;2.00;;;;;18.64;49.21;102251.81;2411869;28;46102;-75
2022/06/12 05:35:49;;;;;;;;;4.00;2.00;;;;;18.66;48.83;102255.31;2395541;28;45423;-75
2022/06/12 05:36:59;;;;;;;;;2.75;2.00;;;;;18.69;48.69;102253.44;2397707;28;45530;-75
2022/06/12 05:38:11;;;;;;;;;1.50;1.50;;;;;18.66;48.32;102257.09;2401299;28;45487;-75
2022/06/12 05:39:22;;;;;;;;;2.25;2.00;;;;;18.69;48.83;102259.63;2401922;28;45466;-75
2022/06/12 05:40:35;;;;;;;;;3.00;1.50;;;;;18.70;48.62;102257.81;2398424;28;45477;-75
2022/06/12 05:41:46;;;;;;;;;2.75;1.00;;;;;18.71;48.29;102265.75;2397487;28;45501;-75
2022/06/12 05:42:57;;;;;;;;;4.00;2.25;;;;;18.71;48.31;102263.09;2398919;28;45447;-75
2022/06/12 05:44:07;;;;;;;;;3.00;3.00;;;;;18.72;48.54;102264.81;2391746;28;46059;-75
2022/06/12 05:45:21;;;;;;;;;1.50;1.00;;;;;18.74;48.61;102262.94;2398621;28;45472;-75
2022/06/12 05:46:32;;;;;;;;;2.00;2.00;;;;;18.77;47.87;102267.28;2398268;28;45327;-75
2022/06/12 05:47:49;;;;;;;;;2.50;2.00;;;;;18.75;48.13;102269.13;2398575;28;46905;-75
2022/06/12 05:49:00;;;;;;;;;3.00;2.00;;;;;18.77;48.65;102272.59;2397401;28;48557;-75
2022/06/12 05:50:11;;;;;;;;;2.75;1.75;;;;;18.80;48.23;102271.59;2392245;28;45288;-75
2022/06/12 05:51:21;;;;;;;;;3.00;1.00;;;;;18.81;48.00;102270.69;2392460;28;47030;-75
2022/06/12 05:52:31;;;;;;;;;5.75;3.25;;;;;18.82;47.68;102275.94;2398497;28;45319;-75
2022/06/12 05:53:42;;;;;;;;;3.00;2.00;;;;;18.82;47.58;102281.25;2398558;28;46435;-75
2022/06/12 05:54:53;;;;;;;;;2.00;2.00;;;;;18.80;47.88;102277.78;2397977;28;45521;-75
2022/06/12 05:56:10;;;;;;;;;3.25;2.25;;;;;18.82;48.39;102281.25;2398011;28;45508;-75
2022/06/12 05:57:20;;;;;;;;;5.25;1.50;;;;;18.83;48.11;102276.78;2398530;28;46922;-75
2022/06/12 05:58:30;;;;;;;;;4.00;2.00;;;;;18.82;48.16;102272.38;2398172;28;45414;-75
2022/06/12 05:59:41;;;;;;;;;2.25;1.00;;;;;18.84;47.79;102273.22;2398959;28;45350;-75
2022/06/12 06:00:52;;;;;;;;;3.00;1.00;;;;;18.87;47.80;102284.59;2401011;28;46291;-75
2022/06/12 06:02:03;;;;;;;;;2.00;2.00;;;;;18.88;48.41;102280.13;2402446;28;45301;-75
2022/06/12 06:03:14;;;;;;;;;4.50;2.00;;;;;18.91;48.29;102285.34;2401761;28;47629;-75
2022/06/12 06:04:24;;;;;;;;;2.25;0.75;;;;;18.92;47.75;102287.03;2404883;28;45386;-75
2022/06/12 06:05:36;;;;;;;;;1.00;1.00;;;;;18.96;48.09;102282.47;2409073;28;45467;-75
2022/06/12 06:06:51;;;;;;;;;3.50;2.75;;;;;18.99;48.06;102287.63;2402918;28;45309;-75
2022/06/12 06:08:02;;;;;;;;;2.25;2.00;;;;;19.03;48.24;102291.91;2410366;28;47056;-75
2022/06/12 06:09:12;;;;;;;;;5.50;2.00;;;;;19.04;48.18;102296.28;2409050;28;45239;-75
2022/06/12 06:10:26;;;;;;;;;3.00;2.00;;;;;19.07;48.09;102282.84;2402138;28;47156;-75
2022/06/12 06:11:37;;;;;;;;;3.50;2.50;;;;;19.07;47.56;102288.16;2401075;28;45268;-75
2022/06/12 06:12:47;;;;;;;;;1.75;1.00;;;;;19.07;47.55;102289.97;2400559;28;46439;-75
2022/06/12 06:13:58;;;;;;;;;2.50;2.00;;;;;19.06;48.12;102289.09;2401964;28;45221;-75
2022/06/12 06:15:10;;;;;;;;;3.25;1.50;;;;;19.08;47.84;102283.72;2401876;28;47068;-75
2022/06/12 06:16:20;;;;;;;;;2.25;2.00;;;;;19.12;48.10;102293.28;2402279;28;45325;-75
2022/06/12 06:17:31;;;;;;;;;8.00;3.00;;;;;19.15;48.22;102293.16;2402025;28;46843;-75
2022/06/12 06:18:42;;;;;;;;;1.00;1.00;;;;;19.16;47.99;102292.22;2401393;28;45300;-75
2022/06/12 06:19:52;;;;;;;;;1.75;1.00;;;;;19.19;47.93;102294.78;2401355;28;45548;-75
2022/06/12 06:21:03;;;;;;;;;3.00;3.00;;;;;19.22;48.11;102293.78;2408823;28;45171;-75
2022/06/12 06:22:16;;;;;;;;;3.00;2.00;;;;;19.27;48.06;102294.44;2403130;28;45343;-75
2022/06/12 06:23:27;;;;;;;;;5.50;2.25;;;;;19.33;48.47;102286.13;2401116;28;45888;-75
2022/06/12 06:24:37;;;;;;;;;1.25;1.25;;;;;19.37;48.28;102291.34;2400504;28;46296;-75
2022/06/12 06:25:47;;;;;;;;;1.75;1.75;;;;;19.43;48.00;102291.06;2402041;28;44797;-75
2022/06/12 06:26:58;;;;;;;;;2.00;2.00;;;;;19.47;48.63;102292.66;2401719;28;45350;-75
2022/06/12 06:28:10;;;;;;;;;1.50;1.25;;;;;19.54;47.98;102294.09;2401925;28;45434;-75
2022/06/12 06:29:20;;;;;;;;;2.00;2.00;;;;;19.60;48.06;102294.75;2401035;28;47575;-75
2022/06/12 06:30:31;;;;;;;;;4.75;3.00;;;;;19.65;47.53;102290.06;2404621;28;45199;-75
2022/06/12 06:31:41;;;;;;;;;1.50;1.00;;;;;19.66;47.29;102292.66;2407173;28;46263;-75
2022/06/12 06:32:53;;;;;;;;;3.50;1.50;;;;;19.68;47.22;102289.91;2410215;28;44705;-75
2022/06/12 06:34:04;;;;;;;;;3.00;2.75;;;;;19.68;47.40;102290.78;2405499;28;45719;-75
2022/06/12 06:35:15;;;;;;;;;3.25;2.00;;;;;19.73;47.02;102297.72;2402908;28;45357;-75
2022/06/12 06:36:25;;;;;;;;;6.50;3.00;;;;;19.72;47.35;102286.16;2402489;28;45697;-75
2022/06/12 06:37:37;;;;;;;;;2.00;1.25;;;;;19.77;47.37;102291.28;2401236;28;45328;-75
2022/06/12 06:38:53;;;;;;;;;3.25;2.25;;;;;19.79;47.35;102292.06;2401818;28;45639;-75
2022/06/12 06:40:06;;;;;;;;;4.00;3.00;;;;;19.81;47.01;102292.84;2402731;28;45261;-75
2022/06/12 06:41:16;;;;;;;;;3.00;2.00;;;;;19.82;46.69;102301.72;2402827;28;46339;-75
2022/06/12 06:42:26;;;;;;;;;4.75;3.00;;;;;19.78;47.01;102293.88;2401723;28;45249;-75
2022/06/12 06:46:37;;;;;;;;;3.50;2.00;;;;;19.79;47.22;102297.41;2404250;28;45401;-75
2022/06/12 06:47:48;;;;;;;;;4.00;2.75;;;;;19.77;46.27;102297.50;2402888;28;44656;-75
2022/06/12 06:48:59;;;;;;;;;3.50;2.00;;;;;19.77;46.81;102302.81;2406232;28;46109;-76
2022/06/12 06:50:12;;;;;;;;;3.25;2.25;;;;;19.75;46.28;102299.38;2403572;28;45246;-75
2022/06/12 06:51:23;;;;;;;;;1.75;1.75;;;;;19.75;46.55;102294.03;2403229;28;46358;-75
2022/06/12 06:52:34;;;;;;;;;2.50;0.00;;;;;19.76;46.67;102298.41;2402551;28;45356;-76
2022/06/12 06:53:45;;;;;;;;;2.50;2.25;;;;;19.78;46.38;102301.88;2402248;28;45604;-76
2022/06/12 06:54:55;;;;;;;;;2.00;2.00;;;;;19.78;46.31;102291.19;2403616;28;45233;-75
2022/06/12 06:56:07;;;;;;;;;5.00;3.00;;;;;19.82;46.28;102296.41;2403456;28;47973;-75
2022/06/12 06:57:18;;;;;;;;;1.50;1.50;;;;;19.83;46.40;102290.13;2396339;28;45664;-75
2022/06/12 06:58:31;;;;;;;;;4.00;3.00;;;;;19.84;46.71;102294.50;2403570;28;46220;-75
2022/06/12 06:59:41;;;;;;;;;5.75;3.00;;;;;19.86;47.36;102300.63;2403522;28;45209;-75
2022/06/12 07:00:53;;;;;;;;;4.00;1.00;;;;;19.89;46.65;102304.03;2402616;28;46251;-75
2022/06/12 07:02:04;;;;;;;;;2.50;1.00;;;;;19.90;46.31;102302.25;2404438;28;44521;-75
2022/06/12 07:03:15;;;;;;;;;2.75;2.75;;;;;19.92;45.98;102303.03;2401977;28;48127;-75
2022/06/12 07:04:26;;;;;;;;;0.00;0.00;;;;;19.94;46.31;102300.28;2402025;28;45499;-76
2022/06/12 07:05:37;;;;;;;;;2.25;2.00;;;;;19.96;46.38;102303.72;2403167;28;45439;-75
2022/06/12 07:06:48;;;;;;;;;1.50;1.00;;;;;19.97;46.18;102298.34;2412345;28;45301;-75
2022/06/12 07:08:00;;;;;;;;;3.00;2.00;;;;;19.98;45.58;102300.06;2410188;28;45340;-75
2022/06/12 07:09:10;;;;;;;;;3.00;1.00;;;;;19.99;45.84;102300.91;2403805;28;45196;-75
2022/06/12 07:10:23;;;;;;;;;4.00;2.00;;;;;19.99;44.89;102304.47;2404193;28;46446;-75
2022/06/12 07:11:34;;;;;;;;;2.25;2.25;;;;;19.97;45.21;102303.69;2404278;28;45221;-75
2022/06/12 07:12:45;;;;;;;;;2.00;1.25;;;;;19.95;45.54;102300.19;2401538;28;45533;-75
2022/06/12 07:13:58;;;;;;;;;3.25;2.25;;;;;19.97;45.23;102300.13;2412625;28;45375;-75
2022/06/12 07:15:11;;;;;;;;;2.00;1.00;;;;;19.99;45.52;102306.25;2409714;28;45416;-75
2022/06/12 07:16:21;;;;;;;;;2.00;1.25;;;;;19.97;45.66;102306.34;2411378;28;45280;-75
2022/06/12 07:17:32;;;;;;;;;2.25;2.00;;;;;20.00;45.88;102306.16;2410145;28;47164;-75
2022/06/12 07:18:43;;;;;;;;;1.75;1.00;;;;;20.02;46.01;102307.00;2403070;28;45274;-75
2022/06/12 07:19:53;;;;;;;;;5.00;2.25;;;;;20.04;45.91;102301.56;2403901;28;45217;-75
2022/06/12 07:21:04;;;;;;;;;2.00;2.00;;;;;20.05;45.56;102303.28;2404187;28;45229;-75
2022/06/12 07:22:14;;;;;;;;;1.25;1.00;;;;;20.05;45.55;102302.44;2402716;28;46618;-75
2022/06/12 07:23:25;;;;;;;;;2.75;2.75;;;;;20.04;46.04;102300.69;2403627;28;45439;-75
2022/06/12 07:24:35;;;;;;;;;2.00;2.00;;;;;20.03;44.80;102299.81;2403126;28;46101;-75
2022/06/12 07:25:50;;;;;;;;;1.75;1.50;;;;;20.01;45.45;102299.91;2412802;28;45250;-75
2022/06/12 07:27:00;;;;;;;;;4.00;2.00;;;;;20.01;45.34;102293.69;2406424;28;45349;-75
2022/06/12 07:28:12;;;;;;;;;2.00;2.00;;;;;20.03;45.48;102297.16;2399747;28;44753;-75
2022/06/12 07:29:22;;;;;;;;;3.25;3.25;;;;;20.06;45.44;102301.47;2403138;28;45999;-75
2022/06/12 07:30:32;;;;;;;;;3.00;1.50;;;;;20.06;45.69;102298.81;2396422;28;45324;-75
2022/06/12 07:31:43;;;;;;;;;2.00;2.00;;;;;20.08;45.33;102295.13;2404138;28;45529;-75
2022/06/12 07:32:53;;;;;;;;;4.00;3.00;;;;;20.08;45.33;102297.78;2401096;28;45688;-75
2022/06/12 07:34:04;;;;;;;;;1.75;1.75;;;;;20.10;45.25;102301.25;2403637;28;45268;-75
2022/06/12 07:35:15;;;;;;;;;3.75;2.25;;;;;20.12;45.28;102303.91;2403958;28;44720;-75
2022/06/12 07:36:26;;;;;;;;;3.00;3.00;;;;;20.12;45.73;102303.91;2403776;28;46408;-75
2022/06/12 07:37:37;;;;;;;;;4.75;4.75;;;;;20.16;45.32;102309.94;2403118;28;44707;-75
2022/06/12 07:38:49;;;;;;;;;5.00;2.50;;;;;20.17;44.84;102309.88;2393643;28;46047;-75
2022/06/12 07:40:00;;;;;;;;;4.25;2.25;;;;;20.16;45.58;102305.47;2400349;28;45161;-75
2022/06/12 07:41:13;;;;;;;;;4.75;3.75;;;;;20.17;44.76;102306.34;2403773;28;45542;-75
2022/06/12 07:42:23;;;;;;;;;1.00;1.00;;;;;20.18;44.98;102302.72;2400893;28;45225;-75
2022/06/12 07:43:35;;;;;;;;;6.00;3.00;;;;;20.19;44.72;102304.44;2402927;28;46520;-75
2022/06/12 07:44:45;;;;;;;;;3.75;2.25;;;;;20.18;44.57;102303.59;2410843;28;45351;-75
2022/06/12 07:45:56;;;;;;;;;8.00;2.50;;;;;20.18;44.73;102308.91;2410065;28;45511;-75
2022/06/12 07:47:07;;;;;;;;;4.25;3.00;;;;;20.19;44.84;102302.66;2403964;28;44623;-75
2022/06/12 07:48:20;;;;;;;;;2.00;1.50;;;;;20.23;45.08;102306.91;2402924;28;46012;-75
2022/06/12 07:49:31;;;;;;;;;3.50;2.25;;;;;20.24;44.85;102305.09;2403950;28;44529;-75
2022/06/12 07:50:42;;;;;;;;;5.25;1.50;;;;;20.27;45.30;102290.72;2403821;28;47163;-75
2022/06/12 07:51:55;;;;;;;;;2.00;2.00;;;;;20.31;45.06;102306.53;2403945;28;45266;-75
2022/06/12 07:53:06;;;;;;;;;1.75;1.75;;;;;20.34;45.13;102302.84;2401024;28;45280;-75
2022/06/12 07:54:19;;;;;;;;;2.00;2.00;;;;;20.34;44.64;102305.50;2402949;28;45290;-75
2022/06/12 07:55:30;;;;;;;;;1.75;1.50;;;;;20.38;43.82;102307.06;2403751;28;46455;-75
2022/06/12 07:56:40;;;;;;;;;3.00;2.00;;;;;20.39;44.20;102300.81;2402717;28;45229;-75
2022/06/12 07:57:51;;;;;;;;;3.00;2.00;;;;;20.42;44.00;102303.28;2411914;28;46914;-75
2022/06/12 07:59:01;;;;;;;;;2.50;2.00;;;;;20.41;43.51;102306.91;2406574;28;45455;-75
2022/06/12 08:00:13;;;;;;;;;1.50;1.50;;;;;20.42;43.87;102303.28;2411697;28;47523;-75
2022/06/12 08:01:27;;;;;;;;;1.25;1.25;;;;;20.44;43.21;102297.91;2408568;28;45175;-75
2022/06/12 08:02:37;;;;;;;;;1.00;1.00;;;;;20.46;44.02;102302.22;2403654;28;45357;-75
2022/06/12 08:03:48;;;;;;;;;3.25;2.00;;;;;20.46;43.94;102302.22;2403073;28;45336;-75
2022/06/12 08:04:59;;;;;;;;;1.50;1.50;;;;;20.48;43.76;102294.13;2403096;28;46743;-75
2022/06/12 08:06:10;;;;;;;;;1.00;1.00;;;;;20.49;44.41;102303.88;2404295;28;45381;-75
2022/06/12 08:07:20;;;;;;;;;5.00;2.00;;;;;20.51;43.81;102299.31;2402752;28;46614;-75
2022/06/12 08:08:30;;;;;;;;;2.75;0.00;;;;;20.52;44.30;102300.19;2402583;28;44624;-75
2022/06/12 08:09:41;;;;;;;;;1.00;1.00;;;;;20.55;43.78;102297.34;2403674;28;46098;-76
2022/06/12 08:10:51;;;;;;;;;2.50;1.00;;;;;20.61;44.39;102297.03;2402319;28;45296;-75
2022/06/12 08:12:01;;;;;;;;;2.00;2.00;;;;;20.64;44.09;102290.69;2402826;28;45409;-75
2022/06/12 08:13:12;;;;;;;;;2.00;2.00;;;;;20.67;44.02;102293.16;2403086;28;44720;-75
2022/06/12 08:14:24;;;;;;;;;2.25;1.75;;;;;20.69;44.05;102291.31;2402108;28;46204;-75
2022/06/12 08:15:35;;;;;;;;;2.00;1.25;;;;;20.70;43.66;102295.69;2403031;28;45366;-75
2022/06/12 08:16:45;;;;;;;;;2.00;2.00;;;;;20.72;43.72;102300.97;2405175;28;47086;-75
2022/06/12 08:17:57;;;;;;;;;2.75;2.00;;;;;20.72;43.65;102291.13;2409992;28;45253;-75
2022/06/12 08:20:24;;;;;;;;;2.50;2.25;;;;;20.71;43.80;102297.44;2411787;28;48327;-75
2022/06/12 08:20:45;;;;;;;;;3.75;3.00;;;;;20.71;43.28;102300.09;2406443;28;45249;-75
2022/06/12 08:21:57;;;;;;;;;6.50;1.75;;;;;20.70;43.20;102295.69;2403820;28;46350;-75
2022/06/12 08:23:28;;;;;;;;;4.00;2.00;;;;;20.68;43.60;102287.75;2403137;28;45443;-75
2022/06/12 08:24:39;;;;;;;;;3.00;3.00;;;;;20.71;43.48;102291.22;2402106;28;46667;-75
2022/06/12 08:25:49;;;;;;;;;3.25;2.00;;;;;20.70;44.00;102295.69;2403509;28;45307;-75
2022/06/12 08:27:00;;;;;;;;;3.50;2.00;;;;;20.71;43.72;102292.09;2402118;28;46294;-75
2022/06/12 08:28:10;;;;;;;;;5.50;2.00;;;;;20.72;43.50;102292.94;2409189;28;45304;-75
2022/06/12 08:29:20;;;;;;;;;5.50;3.00;;;;;20.74;43.13;102293.72;2405294;28;46409;-75
2022/06/12 08:30:31;;;;;;;;;5.00;1.25;;;;;20.74;43.11;102293.72;2398483;28;45490;-75
2022/06/12 08:31:48;;;;;;;;;2.25;2.25;;;;;20.73;43.32;102284.84;2398932;28;46239;-75
2022/06/12 08:32:59;;;;;;;;;4.00;2.00;;;;;20.73;43.25;102292.88;2399305;28;47599;-75
2022/06/12 08:34:22;;;;;;;;;3.50;2.00;;;;;20.72;43.70;102279.59;2403236;28;45241;-75
2022/06/12 08:35:33;;;;;;;;;1.50;1.25;;;;;20.74;43.83;102278.53;2394411;28;45165;-75
2022/06/12 08:36:43;;;;;;;;;3.00;3.00;;;;;20.75;43.76;102279.41;2400991;28;46435;-75
2022/06/12 08:37:55;;;;;;;;;1.00;1.00;;;;;20.77;43.67;102272.19;2402686;28;46903;-75
2022/06/12 08:39:06;;;;;;;;;4.75;2.25;;;;;20.81;43.63;102276.44;2402734;28;45574;-75
2022/06/12 08:40:48;;;;;;;;;3.75;3.00;;;;;20.85;43.56;102279.78;2402496;28;45151;-75
2022/06/12 08:42:13;;;;;;;;;5.50;2.75;;;;;20.87;42.82;102284.13;2398217;28;46027;-75
2022/06/12 08:44:28;;;;;;;;;3.00;1.00;;;;;20.88;43.47;102276.97;2403367;28;46679;-75
2022/06/12 08:45:46;;;;;;;;;1.25;1.25;;;;;20.92;43.12;102284.75;2377290;28;45606;-75
2022/06/12 08:47:09;;;;;;;;;4.50;1.25;;;;;20.94;43.16;102281.13;2402924;28;45411;-75
2022/06/12 08:48:41;;;;;;;;;3.50;2.00;;;;;20.95;43.09;102282.84;2411541;28;47694;-76
2022/06/12 08:50:09;;;;;;;;;1.50;1.00;;;;;20.94;43.65;102278.47;2404944;28;45281;-75
2022/06/12 08:51:26;;;;;;;;;4.00;2.00;;;;;20.96;43.65;102272.09;2402470;28;45516;-76
2022/06/12 08:52:50;;;;;;;;;1.50;1.50;;;;;21.00;43.99;102267.44;2393962;28;45222;-75
2022/06/12 08:54:06;;;;;;;;;2.50;2.50;;;;;21.01;43.23;102264.69;2402650;28;45522;-76
2022/06/12 08:55:30;;;;;;;;;2.00;2.00;;;;;21.02;43.45;102271.78;2403542;28;45454;-76
2022/06/12 08:56:43;;;;;;;;;3.00;3.00;;;;;21.05;44.11;102270.75;2403186;28;46388;-75
2022/06/12 08:58:34;;;;;;;;;4.00;2.50;;;;;21.09;43.48;102264.28;2400365;28;45225;-75
2022/06/12 08:59:53;;;;;;;;;3.00;3.00;;;;;21.14;43.73;102266.72;2403333;28;46368;-75
2022/06/12 09:01:03;;;;;;;;;2.00;2.00;;;;;21.18;43.27;102264.75;2409385;28;45482;-75
2022/06/12 09:02:42;;;;;;;;;2.75;2.00;;;;;21.24;42.60;102261.72;2403102;28;46544;-75
2022/06/12 09:03:54;;;;;;;;;3.50;2.00;;;;;21.24;42.16;102261.72;2400967;28;45537;-75
2022/06/12 09:05:09;;;;;;;;;3.50;2.00;;;;;21.27;42.25;102261.56;2399724;28;45375;-75
2022/06/12 09:06:45;;;;;;;;;3.00;2.00;;;;;21.30;43.08;102263.22;2402842;28;45366;-75
2022/06/12 09:08:12;;;;;;;;;1.00;1.00;;;;;21.32;42.64;102267.53;2402033;28;47012;-75
2022/06/12 09:09:28;;;;;;;;;2.25;1.75;;;;;21.36;42.47;102269.09;2402979;28;45305;-75
2022/06/12 09:10:52;;;;;;;;;2.75;2.75;;;;;21.40;42.29;102260.91;2402983;28;46609;-75
2022/06/12 09:12:09;;;;;;;;;1.00;1.00;;;;;21.42;42.02;102262.53;2402736;28;45466;-75
2022/06/12 09:13:29;;;;;;;;;2.50;2.00;;;;;21.44;42.04;102259.78;2403207;28;46422;-75
2022/06/12 09:14:59;;;;;;;;;2.00;2.00;;;;;21.43;42.34;102263.41;2403302;28;44646;-75
2022/06/12 09:16:09;;;;;;;;;2.75;2.75;;;;;21.44;42.40;102251.75;2400099;28;47631;-75
2022/06/12 09:18:01;;;;;;;;;1.25;1.25;;;;;21.48;42.40;102259.50;2404625;28;45269;-75
2022/06/12 09:19:33;;;;;;;;;3.00;2.00;;;;;21.51;41.85;102257.66;2393626;28;47401;-75
2022/06/12 09:21:27;;;;;;;;;1.00;1.00;;;;;21.52;41.76;102254.00;2393919;28;45282;-75
2022/06/12 09:22:54;;;;;;;;;2.00;2.00;;;;;21.55;41.61;102256.50;2373970;28;46451;-75
2022/06/12 09:24:35;;;;;;;;;2.00;2.00;;;;;21.57;41.78;102260.81;2374367;28;45565;-75
2022/06/12 09:26:06;;;;;;;;;2.00;2.00;;;;;21.61;41.62;102261.50;2405601;28;47949;-75
2022/06/12 09:27:42;;;;;;;;;1.25;1.00;;;;;21.64;41.36;102256.00;2407129;28;45439;-75
2022/06/12 09:29:22;;;;;;;;;3.00;1.00;;;;;21.67;40.98;102260.31;2403043;28;45581;-75
2022/06/12 09:31:08;;;;;;;;;2.00;2.00;;;;;21.70;41.44;102255.63;2402449;28;45665;-75
2022/06/12 09:32:56;;;;;;;;;2.50;2.00;;;;;21.73;40.73;102256.44;2392536;28;46161;-75
2022/06/12 09:34:12;;;;;;;;;2.00;2.00;;;;;21.73;41.73;102254.59;2401436;28;45405;-75
2022/06/12 09:35:22;;;;;;;;;2.50;2.50;;;;;21.78;41.23;102265.91;2402667;28;46767;-75
2022/06/12 09:38:18;;;;;;;;;2.75;2.75;;;;;21.80;41.21;102260.47;2403085;28;45261;-75
2022/06/12 09:38:43;;;;;;;;;4.00;2.00;;;;;21.85;41.11;102254.88;2400573;28;45916;-75
2022/06/12 09:40:03;;;;;;;;;2.00;2.00;;;;;21.89;41.19;102259.97;2403204;28;45544;-75
2022/06/12 09:41:19;;;;;;;;;4.00;2.25;;;;;21.93;41.63;102255.28;2401686;28;48102;-75
2022/06/12 09:42:52;;;;;;;;;3.00;3.00;;;;;21.96;41.21;102263.16;2396259;28;45202;-75
2022/06/12 09:44:25;;;;;;;;;3.25;1.00;;;;;21.99;40.71;102260.31;2398375;28;47705;-75
2022/06/12 09:45:50;;;;;;;;;3.00;3.00;;;;;22.00;41.08;102261.19;2401915;28;45361;-75
2022/06/12 09:47:38;;;;;;;;;2.00;2.00;;;;;22.02;41.06;102260.16;2403074;28;45573;-75
2022/06/12 09:49:10;;;;;;;;;3.00;2.00;;;;;22.04;40.83;102257.38;2402578;28;45213;-75
2022/06/12 09:50:48;;;;;;;;;2.00;2.00;;;;;22.07;40.38;102250.97;2400860;28;46461;-75
2022/06/12 09:52:34;;;;;;;;;4.00;2.00;;;;;22.10;41.33;102254.31;2410957;28;45240;-75
2022/06/12 09:54:25;;;;;;;;;2.00;2.00;;;;;22.16;41.15;102253.09;2409468;28;47176;-75
2022/06/12 09:55:36;;;;;;;;;3.50;2.75;;;;;22.19;41.35;102263.63;2403735;28;45363;-75
2022/06/12 09:57:09;;;;;;;;;4.00;2.00;;;;;22.21;40.52;102256.38;2402649;28;46127;-75
2022/06/12 09:58:26;;;;;;;;;2.25;2.00;;;;;22.22;40.87;102255.44;2399683;28;45241;-75
2022/06/12 09:59:48;;;;;;;;;3.00;2.25;;;;;22.23;40.54;102262.50;2400666;28;46389;-75
2022/06/12 10:01:04;;;;;;;;;2.00;2.00;;;;;22.23;40.93;102251.78;2404022;28;47002;-75
2022/06/12 10:02:20;;;;;;;;;2.25;2.00;;;;;22.25;41.31;102252.56;2410317;28;48128;-75
2022/06/12 10:04:10;;;;;;;;;3.00;3.00;;;;;22.28;40.46;102253.31;2407687;28;44681;-75
2022/06/12 10:05:31;;;;;;;;;2.25;2.25;;;;;22.28;39.59;102256.00;2389379;28;45301;-75
2022/06/12 10:06:50;;;;;;;;;1.25;1.25;;;;;22.27;40.42;102236.41;2401354;28;45327;-75
2022/06/12 10:08:30;;;;;;;;;2.25;2.25;;;;;22.27;40.40;102244.44;2400183;28;45443;-76
2022/06/12 10:09:47;;;;;;;;;4.50;2.00;;;;;22.26;40.47;102243.59;2401697;28;44733;-76
2022/06/12 10:11:05;;;;;;;;;3.50;2.00;;;;;22.30;40.79;102244.25;2400608;28;46866;-76